sensor_id;sensor_type;location;lat;lon;timestamp;P1;durP1;ratioP1;P2;durP2;ratioP2
76597;SDS011;65486;53.144;18.134;2023-07-29T00:02:18;6.90;;;4.00;;
76597;SDS011;65486;53.144;18.134;2023-07-29T00:04:45;6.20;;;4.30;;
76597;SDS011;65486;53.144;18.134;2023-07-29T00:07:12;7.00;;;5.10;;
76597;SDS011;65486;53.144;18.134;2023-07-29T00:09:39;6.00;;;4.30;;
76597;SDS011;65486;53.144;18.134;2023-07-29T00:12:06;5.50;;;3.80;;
76597;SDS011;65486;53.144;18.134;2023-07-29T00:14:33;7.50;;;4.70;;
76597;SDS011;65486;53.144;18.134;2023-07-29T00:17:02;5.50;;;4.40;;
76597;SDS011;65486;53.144;18.134;2023-07-29T00:19:29;7.10;;;4.20;;
76597;SDS011;65486;53.144;18.134;2023-07-29T00:21:56;7.10;;;5.80;;
76597;SDS011;65486;53.144;18.134;2023-07-29T00:24:25;5.40;;;3.90;;
76597;SDS011;65486;53.144;18.134;2023-07-29T00:26:52;5.90;;;4.10;;
76597;SDS011;65486;53.144;18.134;2023-07-29T00:29:21;6.20;;;3.90;;
76597;SDS011;65486;53.144;18.134;2023-07-29T00:31:48;6.00;;;3.80;;
76597;SDS011;65486;53.144;18.134;2023-07-29T00:34:17;5.40;;;4.00;;
76597;SDS011;65486;53.144;18.134;2023-07-29T00:36:46;5.20;;;4.20;;
76597;SDS011;65486;53.144;18.134;2023-07-29T00:39:13;6.30;;;4.10;;
76597;SDS011;65486;53.144;18.134;2023-07-29T00:41:40;7.30;;;4.30;;
76597;SDS011;65486;53.144;18.134;2023-07-29T00:44:08;5.10;;;3.80;;
76597;SDS011;65486;53.144;18.134;2023-07-29T00:46:37;6.30;;;4.20;;
76597;SDS011;65486;53.144;18.134;2023-07-29T00:49:06;4.80;;;3.70;;
76597;SDS011;65486;53.144;18.134;2023-07-29T00:51:34;6.70;;;4.10;;
76597;SDS011;65486;53.144;18.134;2023-07-29T00:54:02;5.00;;;3.80;;
76597;SDS011;65486;53.144;18.134;2023-07-29T00:56:31;5.00;;;3.80;;
76597;SDS011;65486;53.144;18.134;2023-07-29T00:58:58;5.30;;;3.50;;
76597;SDS011;65486;53.144;18.134;2023-07-29T01:01:28;6.80;;;4.00;;
76597;SDS011;65486;53.144;18.134;2023-07-29T01:03:57;5.00;;;3.50;;
76597;SDS011;65486;53.144;18.134;2023-07-29T01:06:34;4.20;;;3.30;;
76597;SDS011;65486;53.144;18.134;2023-07-29T01:09:30;7.40;;;3.80;;
76597;SDS011;65486;53.144;18.134;2023-07-29T01:12:11;5.50;;;4.20;;
76597;SDS011;65486;53.144;18.134;2023-07-29T01:14:47;6.40;;;3.70;;
76597;SDS011;65486;53.144;18.134;2023-07-29T01:17:40;5.40;;;3.60;;
76597;SDS011;65486;53.144;18.134;2023-07-29T01:20:14;4.80;;;3.70;;
76597;SDS011;65486;53.144;18.134;2023-07-29T01:22:48;4.90;;;3.70;;
76597;SDS011;65486;53.144;18.134;2023-07-29T01:25:17;4.60;;;3.20;;
76597;SDS011;65486;53.144;18.134;2023-07-29T01:27:57;5.50;;;4.20;;
76597;SDS011;65486;53.144;18.134;2023-07-29T01:30:29;5.70;;;4.30;;
76597;SDS011;65486;53.144;18.134;2023-07-29T01:36:02;6.90;;;4.60;;
76597;SDS011;65486;53.144;18.134;2023-07-29T01:38:43;6.20;;;4.40;;
76597;SDS011;65486;53.144;18.134;2023-07-29T01:41:12;7.60;;;4.30;;
76597;SDS011;65486;53.144;18.134;2023-07-29T01:43:42;5.50;;;4.20;;
76597;SDS011;65486;53.144;18.134;2023-07-29T01:46:12;8.00;;;4.90;;
76597;SDS011;65486;53.144;18.134;2023-07-29T01:48:43;6.70;;;4.90;;
76597;SDS011;65486;53.144;18.134;2023-07-29T01:51:13;8.60;;;5.60;;
76597;SDS011;65486;53.144;18.134;2023-07-29T01:53:50;8.30;;;5.90;;
76597;SDS011;65486;53.144;18.134;2023-07-29T01:56:17;8.10;;;5.50;;
76597;SDS011;65486;53.144;18.134;2023-07-29T01:58:55;7.60;;;5.60;;
76597;SDS011;65486;53.144;18.134;2023-07-29T02:01:24;7.30;;;5.00;;
76597;SDS011;65486;53.144;18.134;2023-07-29T02:03:53;6.80;;;5.10;;
76597;SDS011;65486;53.144;18.134;2023-07-29T02:06:25;7.40;;;3.90;;
76597;SDS011;65486;53.144;18.134;2023-07-29T02:08:56;6.70;;;4.80;;
76597;SDS011;65486;53.144;18.134;2023-07-29T02:11:30;6.80;;;4.80;;
76597;SDS011;65486;53.144;18.134;2023-07-29T02:14:03;6.20;;;4.50;;
76597;SDS011;65486;53.144;18.134;2023-07-29T02:16:39;7.70;;;4.40;;
76597;SDS011;65486;53.144;18.134;2023-07-29T02:19:10;6.10;;;4.60;;
76597;SDS011;65486;53.144;18.134;2023-07-29T02:21:37;9.70;;;5.40;;
76597;SDS011;65486;53.144;18.134;2023-07-29T02:24:05;7.10;;;5.20;;
76597;SDS011;65486;53.144;18.134;2023-07-29T02:26:34;7.40;;;5.60;;
76597;SDS011;65486;53.144;18.134;2023-07-29T02:29:01;7.00;;;5.40;;
76597;SDS011;65486;53.144;18.134;2023-07-29T02:31:29;6.90;;;5.00;;
76597;SDS011;65486;53.144;18.134;2023-07-29T02:33:58;9.80;;;5.40;;
76597;SDS011;65486;53.144;18.134;2023-07-29T02:36:25;8.00;;;5.70;;
76597;SDS011;65486;53.144;18.134;2023-07-29T02:38:52;7.50;;;5.40;;
76597;SDS011;65486;53.144;18.134;2023-07-29T02:41:19;6.60;;;4.80;;
76597;SDS011;65486;53.144;18.134;2023-07-29T02:43:50;10.30;;;5.40;;
76597;SDS011;65486;53.144;18.134;2023-07-29T02:46:18;8.20;;;5.10;;
76597;SDS011;65486;53.144;18.134;2023-07-29T02:48:46;9.10;;;5.40;;
76597;SDS011;65486;53.144;18.134;2023-07-29T02:51:13;6.60;;;4.80;;
76597;SDS011;65486;53.144;18.134;2023-07-29T02:53:43;6.60;;;4.90;;
76597;SDS011;65486;53.144;18.134;2023-07-29T02:56:10;8.00;;;5.80;;
76597;SDS011;65486;53.144;18.134;2023-07-29T02:58:38;8.50;;;5.10;;
76597;SDS011;65486;53.144;18.134;2023-07-29T03:01:07;8.70;;;5.80;;
76597;SDS011;65486;53.144;18.134;2023-07-29T03:03:37;7.20;;;5.20;;
76597;SDS011;65486;53.144;18.134;2023-07-29T03:06:09;8.40;;;5.80;;
76597;SDS011;65486;53.144;18.134;2023-07-29T03:08:56;6.40;;;4.70;;
76597;SDS011;65486;53.144;18.134;2023-07-29T03:11:29;8.00;;;5.10;;
76597;SDS011;65486;53.144;18.134;2023-07-29T03:13:57;7.90;;;5.60;;
76597;SDS011;65486;53.144;18.134;2023-07-29T03:16:25;7.30;;;5.00;;
76597;SDS011;65486;53.144;18.134;2023-07-29T03:18:54;10.00;;;5.20;;
76597;SDS011;65486;53.144;18.134;2023-07-29T03:21:21;8.10;;;5.50;;
76597;SDS011;65486;53.144;18.134;2023-07-29T03:23:51;8.20;;;5.90;;
76597;SDS011;65486;53.144;18.134;2023-07-29T03:26:18;8.90;;;5.30;;
76597;SDS011;65486;53.144;18.134;2023-07-29T03:28:47;7.80;;;5.50;;
76597;SDS011;65486;53.144;18.134;2023-07-29T03:31:24;10.00;;;5.90;;
76597;SDS011;65486;53.144;18.134;2023-07-29T03:33:51;6.50;;;5.10;;
76597;SDS011;65486;53.144;18.134;2023-07-29T03:36:22;7.60;;;5.50;;
76597;SDS011;65486;53.144;18.134;2023-07-29T03:38:52;8.40;;;5.80;;
76597;SDS011;65486;53.144;18.134;2023-07-29T03:41:19;7.90;;;5.40;;
76597;SDS011;65486;53.144;18.134;2023-07-29T03:43:47;9.50;;;5.70;;
76597;SDS011;65486;53.144;18.134;2023-07-29T03:46:17;7.10;;;5.20;;
76597;SDS011;65486;53.144;18.134;2023-07-29T03:48:50;6.30;;;4.50;;
76597;SDS011;65486;53.144;18.134;2023-07-29T03:51:22;6.50;;;4.80;;
76597;SDS011;65486;53.144;18.134;2023-07-29T03:53:50;6.90;;;4.40;;
76597;SDS011;65486;53.144;18.134;2023-07-29T03:56:18;7.70;;;5.30;;
76597;SDS011;65486;53.144;18.134;2023-07-29T03:58:48;7.80;;;5.40;;
76597;SDS011;65486;53.144;18.134;2023-07-29T04:01:19;8.80;;;5.40;;
76597;SDS011;65486;53.144;18.134;2023-07-29T04:03:46;8.50;;;6.10;;
76597;SDS011;65486;53.144;18.134;2023-07-29T04:06:14;7.60;;;5.30;;
76597;SDS011;65486;53.144;18.134;2023-07-29T04:08:44;6.50;;;5.00;;
76597;SDS011;65486;53.144;18.134;2023-07-29T04:11:12;9.20;;;6.00;;
76597;SDS011;65486;53.144;18.134;2023-07-29T04:13:43;7.40;;;5.50;;
76597;SDS011;65486;53.144;18.134;2023-07-29T04:16:11;7.80;;;5.80;;
76597;SDS011;65486;53.144;18.134;2023-07-29T04:18:38;6.90;;;5.00;;
76597;SDS011;65486;53.144;18.134;2023-07-29T04:21:06;9.30;;;5.80;;
76597;SDS011;65486;53.144;18.134;2023-07-29T04:23:34;8.30;;;4.90;;
76597;SDS011;65486;53.144;18.134;2023-07-29T04:26:02;8.70;;;5.40;;
76597;SDS011;65486;53.144;18.134;2023-07-29T04:28:31;7.90;;;6.10;;
76597;SDS011;65486;53.144;18.134;2023-07-29T04:31:00;9.10;;;6.30;;
76597;SDS011;65486;53.144;18.134;2023-07-29T04:33:36;8.10;;;6.30;;
76597;SDS011;65486;53.144;18.134;2023-07-29T04:36:03;8.10;;;6.00;;
76597;SDS011;65486;53.144;18.134;2023-07-29T04:38:33;9.00;;;6.20;;
76597;SDS011;65486;53.144;18.134;2023-07-29T04:41:01;8.70;;;6.80;;
76597;SDS011;65486;53.144;18.134;2023-07-29T04:43:34;8.60;;;6.40;;
76597;SDS011;65486;53.144;18.134;2023-07-29T04:46:07;7.80;;;6.00;;
76597;SDS011;65486;53.144;18.134;2023-07-29T04:48:40;8.70;;;6.30;;
76597;SDS011;65486;53.144;18.134;2023-07-29T04:51:07;9.50;;;7.10;;
76597;SDS011;65486;53.144;18.134;2023-07-29T04:53:35;9.30;;;6.60;;
76597;SDS011;65486;53.144;18.134;2023-07-29T04:56:08;10.60;;;7.40;;
76597;SDS011;65486;53.144;18.134;2023-07-29T04:58:37;9.50;;;7.20;;
76597;SDS011;65486;53.144;18.134;2023-07-29T05:01:07;9.80;;;7.00;;
76597;SDS011;65486;53.144;18.134;2023-07-29T05:03:36;10.50;;;7.80;;
76597;SDS011;65486;53.144;18.134;2023-07-29T05:06:06;9.50;;;7.20;;
76597;SDS011;65486;53.144;18.134;2023-07-29T05:08:35;12.20;;;7.50;;
76597;SDS011;65486;53.144;18.134;2023-07-29T05:11:07;9.40;;;6.90;;
76597;SDS011;65486;53.144;18.134;2023-07-29T05:13:34;12.60;;;7.30;;
76597;SDS011;65486;53.144;18.134;2023-07-29T05:16:02;10.70;;;7.70;;
76597;SDS011;65486;53.144;18.134;2023-07-29T05:18:30;10.50;;;7.60;;
76597;SDS011;65486;53.144;18.134;2023-07-29T05:20:57;9.30;;;6.60;;
76597;SDS011;65486;53.144;18.134;2023-07-29T05:23:25;8.00;;;6.40;;
76597;SDS011;65486;53.144;18.134;2023-07-29T05:25:54;9.70;;;7.10;;
76597;SDS011;65486;53.144;18.134;2023-07-29T05:28:24;10.00;;;7.80;;
76597;SDS011;65486;53.144;18.134;2023-07-29T05:31:00;11.10;;;8.10;;
76597;SDS011;65486;53.144;18.134;2023-07-29T05:33:29;8.70;;;6.90;;
76597;SDS011;65486;53.144;18.134;2023-07-29T05:35:56;7.80;;;6.10;;
76597;SDS011;65486;53.144;18.134;2023-07-29T05:38:23;9.90;;;6.10;;
76597;SDS011;65486;53.144;18.134;2023-07-29T05:40:50;7.40;;;6.10;;
76597;SDS011;65486;53.144;18.134;2023-07-29T05:43:20;7.00;;;6.10;;
76597;SDS011;65486;53.144;18.134;2023-07-29T05:45:47;6.70;;;5.20;;
76597;SDS011;65486;53.144;18.134;2023-07-29T05:48:21;6.20;;;5.00;;
76597;SDS011;65486;53.144;18.134;2023-07-29T05:50:52;7.40;;;5.30;;
76597;SDS011;65486;53.144;18.134;2023-07-29T05:53:20;7.10;;;5.70;;
76597;SDS011;65486;53.144;18.134;2023-07-29T05:55:49;7.60;;;6.00;;
76597;SDS011;65486;53.144;18.134;2023-07-29T05:58:23;7.60;;;5.90;;
76597;SDS011;65486;53.144;18.134;2023-07-29T06:00:52;7.40;;;5.20;;
76597;SDS011;65486;53.144;18.134;2023-07-29T06:03:20;5.70;;;4.50;;
76597;SDS011;65486;53.144;18.134;2023-07-29T06:05:54;7.20;;;4.10;;
76597;SDS011;65486;53.144;18.134;2023-07-29T06:08:21;6.10;;;4.80;;
76597;SDS011;65486;53.144;18.134;2023-07-29T06:10:50;7.70;;;4.60;;
76597;SDS011;65486;53.144;18.134;2023-07-29T06:13:17;7.70;;;4.20;;
76597;SDS011;65486;53.144;18.134;2023-07-29T06:15:44;5.10;;;3.40;;
76597;SDS011;65486;53.144;18.134;2023-07-29T06:18:13;6.70;;;4.20;;
76597;SDS011;65486;53.144;18.134;2023-07-29T06:20:42;5.20;;;3.40;;
76597;SDS011;65486;53.144;18.134;2023-07-29T06:23:10;5.50;;;3.50;;
76597;SDS011;65486;53.144;18.134;2023-07-29T06:25:37;4.80;;;3.10;;
76597;SDS011;65486;53.144;18.134;2023-07-29T06:28:04;4.30;;;3.40;;
76597;SDS011;65486;53.144;18.134;2023-07-29T06:30:31;5.00;;;3.10;;
76597;SDS011;65486;53.144;18.134;2023-07-29T06:32:59;5.10;;;3.70;;
76597;SDS011;65486;53.144;18.134;2023-07-29T06:35:26;4.60;;;3.10;;
76597;SDS011;65486;53.144;18.134;2023-07-29T06:37:53;5.30;;;3.80;;
76597;SDS011;65486;53.144;18.134;2023-07-29T06:40:20;4.10;;;3.10;;
76597;SDS011;65486;53.144;18.134;2023-07-29T06:42:47;3.90;;;3.10;;
76597;SDS011;65486;53.144;18.134;2023-07-29T06:45:17;3.30;;;3.00;;
76597;SDS011;65486;53.144;18.134;2023-07-29T06:47:44;4.00;;;2.80;;
76597;SDS011;65486;53.144;18.134;2023-07-29T06:50:11;3.70;;;2.40;;
76597;SDS011;65486;53.144;18.134;2023-07-29T06:52:39;3.40;;;2.60;;
76597;SDS011;65486;53.144;18.134;2023-07-29T06:55:07;4.00;;;2.60;;
76597;SDS011;65486;53.144;18.134;2023-07-29T06:57:37;3.80;;;3.00;;
76597;SDS011;65486;53.144;18.134;2023-07-29T07:00:05;4.30;;;2.80;;
76597;SDS011;65486;53.144;18.134;2023-07-29T07:02:32;3.80;;;2.50;;
76597;SDS011;65486;53.144;18.134;2023-07-29T07:04:59;4.50;;;3.00;;
76597;SDS011;65486;53.144;18.134;2023-07-29T07:07:29;5.70;;;3.00;;
76597;SDS011;65486;53.144;18.134;2023-07-29T07:09:56;3.80;;;2.90;;
76597;SDS011;65486;53.144;18.134;2023-07-29T07:12:26;3.10;;;2.30;;
76597;SDS011;65486;53.144;18.134;2023-07-29T07:14:57;4.20;;;2.80;;
76597;SDS011;65486;53.144;18.134;2023-07-29T07:17:26;5.90;;;2.40;;
76597;SDS011;65486;53.144;18.134;2023-07-29T07:19:58;3.80;;;2.70;;
76597;SDS011;65486;53.144;18.134;2023-07-29T07:22:25;3.60;;;2.50;;
76597;SDS011;65486;53.144;18.134;2023-07-29T07:24:54;3.80;;;2.60;;
76597;SDS011;65486;53.144;18.134;2023-07-29T07:27:21;2.30;;;1.90;;
76597;SDS011;65486;53.144;18.134;2023-07-29T07:29:49;4.40;;;2.10;;
76597;SDS011;65486;53.144;18.134;2023-07-29T07:32:17;2.50;;;1.90;;
76597;SDS011;65486;53.144;18.134;2023-07-29T07:34:48;3.80;;;2.30;;
76597;SDS011;65486;53.144;18.134;2023-07-29T07:37:15;3.90;;;2.20;;
76597;SDS011;65486;53.144;18.134;2023-07-29T07:39:42;2.90;;;1.90;;
76597;SDS011;65486;53.144;18.134;2023-07-29T07:42:09;2.90;;;2.10;;
76597;SDS011;65486;53.144;18.134;2023-07-29T07:44:36;3.70;;;2.10;;
76597;SDS011;65486;53.144;18.134;2023-07-29T07:47:03;2.50;;;2.10;;
76597;SDS011;65486;53.144;18.134;2023-07-29T07:49:32;2.60;;;2.10;;
76597;SDS011;65486;53.144;18.134;2023-07-29T07:52:01;2.80;;;1.90;;
76597;SDS011;65486;53.144;18.134;2023-07-29T07:54:28;2.90;;;2.40;;
76597;SDS011;65486;53.144;18.134;2023-07-29T07:56:56;3.40;;;2.10;;
76597;SDS011;65486;53.144;18.134;2023-07-29T07:59:23;2.60;;;1.80;;
76597;SDS011;65486;53.144;18.134;2023-07-29T08:01:50;2.20;;;1.70;;
76597;SDS011;65486;53.144;18.134;2023-07-29T08:04:19;2.40;;;1.90;;
76597;SDS011;65486;53.144;18.134;2023-07-29T08:06:46;1.90;;;1.50;;
76597;SDS011;65486;53.144;18.134;2023-07-29T08:09:12;2.50;;;1.90;;
76597;SDS011;65486;53.144;18.134;2023-07-29T08:11:41;3.00;;;1.80;;
76597;SDS011;65486;53.144;18.134;2023-07-29T08:14:09;2.20;;;1.60;;
76597;SDS011;65486;53.144;18.134;2023-07-29T08:16:37;1.80;;;0.90;;
76597;SDS011;65486;53.144;18.134;2023-07-29T08:19:04;2.40;;;1.40;;
76597;SDS011;65486;53.144;18.134;2023-07-29T08:21:33;2.80;;;1.80;;
76597;SDS011;65486;53.144;18.134;2023-07-29T08:24:00;1.80;;;1.50;;
76597;SDS011;65486;53.144;18.134;2023-07-29T08:26:31;2.50;;;1.50;;
76597;SDS011;65486;53.144;18.134;2023-07-29T08:28:59;1.70;;;1.40;;
76597;SDS011;65486;53.144;18.134;2023-07-29T08:31:27;2.40;;;1.60;;
76597;SDS011;65486;53.144;18.134;2023-07-29T08:33:54;2.20;;;1.40;;
76597;SDS011;65486;53.144;18.134;2023-07-29T08:36:23;3.10;;;1.80;;
76597;SDS011;65486;53.144;18.134;2023-07-29T08:38:53;2.00;;;1.60;;
76597;SDS011;65486;53.144;18.134;2023-07-29T08:41:28;1.80;;;1.50;;
76597;SDS011;65486;53.144;18.134;2023-07-29T08:44:02;2.00;;;1.20;;
76597;SDS011;65486;53.144;18.134;2023-07-29T08:46:32;4.40;;;1.60;;
76597;SDS011;65486;53.144;18.134;2023-07-29T08:49:01;2.70;;;1.70;;
76597;SDS011;65486;53.144;18.134;2023-07-29T08:51:29;3.80;;;1.50;;
76597;SDS011;65486;53.144;18.134;2023-07-29T08:54:00;2.00;;;1.20;;
76597;SDS011;65486;53.144;18.134;2023-07-29T08:56:28;1.70;;;1.30;;
76597;SDS011;65486;53.144;18.134;2023-07-29T08:58:57;2.30;;;1.50;;
76597;SDS011;65486;53.144;18.134;2023-07-29T09:01:31;2.50;;;1.70;;
76597;SDS011;65486;53.144;18.134;2023-07-29T09:04:11;2.80;;;1.40;;
76597;SDS011;65486;53.144;18.134;2023-07-29T09:06:39;3.40;;;1.70;;
76597;SDS011;65486;53.144;18.134;2023-07-29T09:09:07;3.20;;;1.70;;
76597;SDS011;65486;53.144;18.134;2023-07-29T09:11:35;3.60;;;1.60;;
76597;SDS011;65486;53.144;18.134;2023-07-29T09:14:06;4.10;;;1.70;;
76597;SDS011;65486;53.144;18.134;2023-07-29T09:16:34;2.60;;;1.40;;
76597;SDS011;65486;53.144;18.134;2023-07-29T09:19:04;2.40;;;1.50;;
76597;SDS011;65486;53.144;18.134;2023-07-29T09:21:33;2.20;;;1.40;;
76597;SDS011;65486;53.144;18.134;2023-07-29T09:24:03;4.00;;;1.00;;
76597;SDS011;65486;53.144;18.134;2023-07-29T09:26:31;3.40;;;1.70;;
76597;SDS011;65486;53.144;18.134;2023-07-29T09:28:59;3.90;;;1.50;;
76597;SDS011;65486;53.144;18.134;2023-07-29T09:31:28;2.60;;;1.20;;
76597;SDS011;65486;53.144;18.134;2023-07-29T09:33:57;2.70;;;0.90;;
76597;SDS011;65486;53.144;18.134;2023-07-29T09:36:30;2.50;;;1.30;;
76597;SDS011;65486;53.144;18.134;2023-07-29T09:38:58;1.90;;;1.40;;
76597;SDS011;65486;53.144;18.134;2023-07-29T09:41:27;2.40;;;2.80;;
76597;SDS011;65486;53.144;18.134;2023-07-29T09:44:00;1.60;;;1.10;;
76597;SDS011;65486;53.144;18.134;2023-07-29T09:46:33;2.50;;;1.50;;
76597;SDS011;65486;53.144;18.134;2023-07-29T09:49:04;1.70;;;1.10;;
76597;SDS011;65486;53.144;18.134;2023-07-29T09:51:39;3.40;;;1.50;;
76597;SDS011;65486;53.144;18.134;2023-07-29T09:54:06;1.90;;;1.60;;
76597;SDS011;65486;53.144;18.134;2023-07-29T09:56:39;4.00;;;1.60;;
76597;SDS011;65486;53.144;18.134;2023-07-29T09:59:11;1.80;;;1.30;;
76597;SDS011;65486;53.144;18.134;2023-07-29T10:01:39;1.60;;;1.10;;
76597;SDS011;65486;53.144;18.134;2023-07-29T10:04:08;3.20;;;1.80;;
76597;SDS011;65486;53.144;18.134;2023-07-29T10:06:36;2.00;;;1.30;;
76597;SDS011;65486;53.144;18.134;2023-07-29T10:09:06;2.20;;;1.10;;
76597;SDS011;65486;53.144;18.134;2023-07-29T10:11:36;1.60;;;1.00;;
76597;SDS011;65486;53.144;18.134;2023-07-29T10:14:11;2.00;;;1.00;;
76597;SDS011;65486;53.144;18.134;2023-07-29T10:16:41;1.50;;;1.20;;
76597;SDS011;65486;53.144;18.134;2023-07-29T10:19:12;1.50;;;1.10;;
76597;SDS011;65486;53.144;18.134;2023-07-29T10:21:43;3.60;;;1.20;;
76597;SDS011;65486;53.144;18.134;2023-07-29T10:24:16;1.30;;;0.90;;
76597;SDS011;65486;53.144;18.134;2023-07-29T10:26:58;1.30;;;1.00;;
76597;SDS011;65486;53.144;18.134;2023-07-29T10:29:38;2.50;;;1.40;;
76597;SDS011;65486;53.144;18.134;2023-07-29T10:32:11;3.60;;;1.10;;
76597;SDS011;65486;53.144;18.134;2023-07-29T10:34:38;2.00;;;1.20;;
76597;SDS011;65486;53.144;18.134;2023-07-29T10:37:17;1.40;;;0.90;;
76597;SDS011;65486;53.144;18.134;2023-07-29T10:42:59;2.50;;;1.00;;
76597;SDS011;65486;53.144;18.134;2023-07-29T10:45:38;1.60;;;1.00;;
76597;SDS011;65486;53.144;18.134;2023-07-29T10:48:11;3.60;;;1.20;;
76597;SDS011;65486;53.144;18.134;2023-07-29T10:50:43;1.60;;;0.80;;
76597;SDS011;65486;53.144;18.134;2023-07-29T10:53:10;1.70;;;1.00;;
76597;SDS011;65486;53.144;18.134;2023-07-29T10:55:38;2.50;;;1.50;;
76597;SDS011;65486;53.144;18.134;2023-07-29T11:00:48;3.10;;;1.00;;
76597;SDS011;65486;53.144;18.134;2023-07-29T11:03:15;2.20;;;1.40;;
76597;SDS011;65486;53.144;18.134;2023-07-29T11:05:51;1.80;;;1.00;;
76597;SDS011;65486;53.144;18.134;2023-07-29T11:08:21;4.40;;;1.00;;
76597;SDS011;65486;53.144;18.134;2023-07-29T11:11:06;1.60;;;1.10;;
76597;SDS011;65486;53.144;18.134;2023-07-29T11:13:35;2.30;;;1.00;;
76597;SDS011;65486;53.144;18.134;2023-07-29T11:16:04;1.90;;;1.00;;
76597;SDS011;65486;53.144;18.134;2023-07-29T11:18:34;1.50;;;1.00;;
76597;SDS011;65486;53.144;18.134;2023-07-29T11:21:05;1.50;;;1.20;;
76597;SDS011;65486;53.144;18.134;2023-07-29T11:23:34;1.40;;;1.10;;
76597;SDS011;65486;53.144;18.134;2023-07-29T11:26:07;2.20;;;0.90;;
76597;SDS011;65486;53.144;18.134;2023-07-29T11:28:40;2.70;;;1.00;;
76597;SDS011;65486;53.144;18.134;2023-07-29T11:31:08;1.30;;;0.90;;
76597;SDS011;65486;53.144;18.134;2023-07-29T11:33:38;1.50;;;0.60;;
76597;SDS011;65486;53.144;18.134;2023-07-29T11:36:11;1.80;;;1.30;;
76597;SDS011;65486;53.144;18.134;2023-07-29T11:38:45;2.00;;;1.10;;
76597;SDS011;65486;53.144;18.134;2023-07-29T11:41:29;1.70;;;0.80;;
76597;SDS011;65486;53.144;18.134;2023-07-29T11:44:04;1.90;;;1.20;;
76597;SDS011;65486;53.144;18.134;2023-07-29T11:46:37;1.60;;;1.00;;
76597;SDS011;65486;53.144;18.134;2023-07-29T11:49:13;3.10;;;0.80;;
76597;SDS011;65486;53.144;18.134;2023-07-29T11:51:46;1.50;;;0.90;;
76597;SDS011;65486;53.144;18.134;2023-07-29T11:54:15;1.80;;;0.80;;
76597;SDS011;65486;53.144;18.134;2023-07-29T11:56:50;1.00;;;0.70;;
76597;SDS011;65486;53.144;18.134;2023-07-29T11:59:17;2.10;;;0.80;;
76597;SDS011;65486;53.144;18.134;2023-07-29T12:01:46;1.40;;;0.70;;
76597;SDS011;65486;53.144;18.134;2023-07-29T12:04:15;1.50;;;0.90;;
76597;SDS011;65486;53.144;18.134;2023-07-29T12:06:43;1.10;;;0.70;;
76597;SDS011;65486;53.144;18.134;2023-07-29T12:09:12;2.20;;;1.00;;
76597;SDS011;65486;53.144;18.134;2023-07-29T12:11:42;1.90;;;1.10;;
76597;SDS011;65486;53.144;18.134;2023-07-29T12:14:12;1.60;;;1.00;;
76597;SDS011;65486;53.144;18.134;2023-07-29T12:16:43;4.50;;;0.90;;
76597;SDS011;65486;53.144;18.134;2023-07-29T12:19:14;1.60;;;0.90;;
76597;SDS011;65486;53.144;18.134;2023-07-29T12:21:41;1.40;;;1.00;;
76597;SDS011;65486;53.144;18.134;2023-07-29T12:24:12;1.70;;;1.00;;
76597;SDS011;65486;53.144;18.134;2023-07-29T12:26:57;1.80;;;1.10;;
76597;SDS011;65486;53.144;18.134;2023-07-29T12:29:39;1.80;;;1.20;;
76597;SDS011;65486;53.144;18.134;2023-07-29T12:32:17;1.60;;;1.00;;
76597;SDS011;65486;53.144;18.134;2023-07-29T12:34:46;1.80;;;1.00;;
76597;SDS011;65486;53.144;18.134;2023-07-29T12:37:31;1.60;;;1.30;;
76597;SDS011;65486;53.144;18.134;2023-07-29T12:40:02;2.00;;;1.00;;
76597;SDS011;65486;53.144;18.134;2023-07-29T12:42:30;1.70;;;1.10;;
76597;SDS011;65486;53.144;18.134;2023-07-29T12:44:58;2.00;;;1.00;;
76597;SDS011;65486;53.144;18.134;2023-07-29T12:47:27;1.70;;;0.90;;
76597;SDS011;65486;53.144;18.134;2023-07-29T12:49:54;1.50;;;1.20;;
76597;SDS011;65486;53.144;18.134;2023-07-29T12:52:31;1.50;;;1.20;;
76597;SDS011;65486;53.144;18.134;2023-07-29T12:55:02;2.20;;;1.10;;
76597;SDS011;65486;53.144;18.134;2023-07-29T12:57:31;1.50;;;0.90;;
76597;SDS011;65486;53.144;18.134;2023-07-29T12:59:59;1.60;;;1.30;;
76597;SDS011;65486;53.144;18.134;2023-07-29T13:02:27;3.10;;;1.40;;
76597;SDS011;65486;53.144;18.134;2023-07-29T13:04:55;2.20;;;1.40;;
76597;SDS011;65486;53.144;18.134;2023-07-29T13:07:22;2.40;;;1.10;;
76597;SDS011;65486;53.144;18.134;2023-07-29T13:09:49;1.30;;;0.90;;
76597;SDS011;65486;53.144;18.134;2023-07-29T13:12:20;2.10;;;1.30;;
76597;SDS011;65486;53.144;18.134;2023-07-29T13:14:51;2.30;;;1.90;;
76597;SDS011;65486;53.144;18.134;2023-07-29T13:17:21;2.50;;;1.30;;
76597;SDS011;65486;53.144;18.134;2023-07-29T13:19:55;2.90;;;1.90;;
76597;SDS011;65486;53.144;18.134;2023-07-29T13:22:22;2.60;;;2.10;;
76597;SDS011;65486;53.144;18.134;2023-07-29T13:24:50;2.00;;;1.60;;
76597;SDS011;65486;53.144;18.134;2023-07-29T13:27:17;3.50;;;1.60;;
76597;SDS011;65486;53.144;18.134;2023-07-29T13:29:47;1.80;;;1.50;;
76597;SDS011;65486;53.144;18.134;2023-07-29T13:32:17;3.30;;;1.40;;
76597;SDS011;65486;53.144;18.134;2023-07-29T13:34:44;2.80;;;1.80;;
76597;SDS011;65486;53.144;18.134;2023-07-29T13:37:11;2.20;;;1.20;;
76597;SDS011;65486;53.144;18.134;2023-07-29T13:39:40;2.90;;;1.30;;
76597;SDS011;65486;53.144;18.134;2023-07-29T13:42:09;2.50;;;1.60;;
76597;SDS011;65486;53.144;18.134;2023-07-29T13:44:38;4.50;;;2.10;;
76597;SDS011;65486;53.144;18.134;2023-07-29T13:47:11;2.10;;;1.30;;
76597;SDS011;65486;53.144;18.134;2023-07-29T13:49:38;4.40;;;1.70;;
76597;SDS011;65486;53.144;18.134;2023-07-29T13:52:06;3.40;;;2.00;;
76597;SDS011;65486;53.144;18.134;2023-07-29T13:54:34;3.00;;;1.60;;
76597;SDS011;65486;53.144;18.134;2023-07-29T13:57:01;3.40;;;1.90;;
76597;SDS011;65486;53.144;18.134;2023-07-29T13:59:30;3.00;;;1.70;;
76597;SDS011;65486;53.144;18.134;2023-07-29T14:01:57;2.50;;;1.50;;
76597;SDS011;65486;53.144;18.134;2023-07-29T14:04:25;4.50;;;1.90;;
76597;SDS011;65486;53.144;18.134;2023-07-29T14:06:53;4.20;;;1.90;;
76597;SDS011;65486;53.144;18.134;2023-07-29T14:09:20;4.20;;;2.10;;
76597;SDS011;65486;53.144;18.134;2023-07-29T14:12:07;4.00;;;2.20;;
76597;SDS011;65486;53.144;18.134;2023-07-29T14:14:35;4.20;;;1.90;;
76597;SDS011;65486;53.144;18.134;2023-07-29T14:17:02;3.70;;;2.00;;
76597;SDS011;65486;53.144;18.134;2023-07-29T14:19:30;3.20;;;1.60;;
76597;SDS011;65486;53.144;18.134;2023-07-29T14:25:08;2.80;;;2.00;;
76597;SDS011;65486;53.144;18.134;2023-07-29T14:27:37;2.70;;;1.50;;
76597;SDS011;65486;53.144;18.134;2023-07-29T14:30:10;2.70;;;2.00;;
76597;SDS011;65486;53.144;18.134;2023-07-29T14:32:39;4.40;;;1.90;;
76597;SDS011;65486;53.144;18.134;2023-07-29T14:35:09;1.40;;;1.10;;
76597;SDS011;65486;53.144;18.134;2023-07-29T14:37:36;2.10;;;1.40;;
76597;SDS011;65486;53.144;18.134;2023-07-29T14:40:04;2.10;;;1.70;;
76597;SDS011;65486;53.144;18.134;2023-07-29T14:42:33;2.20;;;1.50;;
76597;SDS011;65486;53.144;18.134;2023-07-29T14:45:03;3.20;;;1.60;;
76597;SDS011;65486;53.144;18.134;2023-07-29T14:47:43;2.90;;;1.70;;
76597;SDS011;65486;53.144;18.134;2023-07-29T14:50:13;5.50;;;1.90;;
76597;SDS011;65486;53.144;18.134;2023-07-29T14:52:40;4.60;;;2.30;;
76597;SDS011;65486;53.144;18.134;2023-07-29T14:55:08;2.80;;;2.00;;
76597;SDS011;65486;53.144;18.134;2023-07-29T14:57:35;3.50;;;2.00;;
76597;SDS011;65486;53.144;18.134;2023-07-29T15:00:05;4.30;;;2.30;;
76597;SDS011;65486;53.144;18.134;2023-07-29T15:02:35;4.00;;;1.80;;